createdAt,value
2019-03-10T00:00:44.004Z,11.20
2019-03-10T00:03:31.890Z,11.20
2019-03-10T00:06:19.676Z,11.10
2019-03-10T00:09:07.476Z,11.00
2019-03-10T00:11:55.092Z,11.00
2019-03-10T00:14:42.517Z,11.00
2019-03-10T00:17:30.040Z,11.00
2019-03-10T00:20:17.540Z,10.90
2019-03-10T00:23:04.998Z,10.90
2019-03-10T00:25:52.465Z,10.80
2019-03-10T00:28:39.865Z,10.80
2019-03-10T00:31:27.483Z,10.80
2019-03-10T00:34:16.694Z,10.80
2019-03-10T00:37:04.384Z,10.70
2019-03-10T00:40:14.200Z,10.70
2019-03-10T00:43:19.695Z,10.70
2019-03-10T00:46:43.137Z,10.60
2019-03-10T00:50:02.520Z,10.50
2019-03-10T00:52:59.849Z,10.30
2019-03-10T00:55:47.384Z,10.30
2019-03-10T00:58:35.079Z,10.60
2019-03-10T01:01:22.503Z,10.60
2019-03-10T01:04:09.980Z,10.70
2019-03-10T01:06:57.845Z,10.80
2019-03-10T01:09:45.271Z,10.80
2019-03-10T01:12:32.743Z,10.80
2019-03-10T01:15:20.325Z,10.80
2019-03-10T01:18:09.097Z,10.90
2019-03-10T01:20:57.424Z,10.90
2019-03-10T01:23:44.791Z,10.90
2019-03-10T01:26:32.568Z,10.90
2019-03-10T01:29:20.181Z,10.90
2019-03-10T01:32:13.801Z,10.90
2019-03-10T01:35:14.098Z,11.00
2019-03-10T01:38:01.744Z,10.90
2019-03-10T01:40:49.515Z,11.00
2019-03-10T01:43:37.205Z,11.10
2019-03-10T01:46:24.552Z,11.10
2019-03-10T01:49:12.230Z,11.20
2019-03-10T01:51:59.951Z,11.20
2019-03-10T01:54:47.633Z,11.30
2019-03-10T01:57:35.299Z,11.20
2019-03-10T02:00:22.743Z,11.20
2019-03-10T02:03:10.316Z,11.20
2019-03-10T02:05:57.722Z,11.10
2019-03-10T02:08:45.477Z,11.00
2019-03-10T02:11:33.201Z,11.00
2019-03-10T02:14:20.945Z,10.90
2019-03-10T02:17:08.595Z,10.90
2019-03-10T02:19:56.023Z,10.80
2019-03-10T02:22:43.404Z,10.80
2019-03-10T02:25:31.075Z,10.70
2019-03-10T02:28:18.688Z,10.70
2019-03-10T02:31:06.468Z,10.60
2019-03-10T02:33:54.061Z,10.40
2019-03-10T02:36:41.700Z,10.30
2019-03-10T02:39:29.318Z,9.90
2019-03-10T02:42:17.017Z,9.90
2019-03-10T02:45:06.244Z,9.80
2019-03-10T02:47:53.968Z,9.70
2019-03-10T02:50:41.599Z,9.50
2019-03-10T02:53:29.277Z,9.50
2019-03-10T02:56:16.882Z,9.40
2019-03-10T02:59:04.259Z,9.30
2019-03-10T03:01:51.937Z,9.30
2019-03-10T03:04:39.460Z,9.30
2019-03-10T03:07:27.198Z,9.40
2019-03-10T03:10:14.878Z,9.40
2019-03-10T03:13:02.285Z,9.40
2019-03-10T03:15:49.692Z,9.40
2019-03-10T03:18:37.325Z,9.50
2019-03-10T03:21:25.087Z,9.60
2019-03-10T03:24:12.608Z,9.60
2019-03-10T03:27:02.493Z,9.70
2019-03-10T03:29:49.761Z,9.80
2019-03-10T03:32:37.246Z,9.80
2019-03-10T03:35:46.066Z,9.90
2019-03-10T03:38:39.530Z,9.90
2019-03-10T03:41:27.205Z,10.10
2019-03-10T03:44:15.003Z,10.10
2019-03-10T03:47:02.387Z,10.10
2019-03-10T03:49:50.079Z,10.00
2019-03-10T03:52:37.781Z,10.00
2019-03-10T03:55:25.118Z,10.00
2019-03-10T03:58:12.633Z,10.00
2019-03-10T04:01:11.069Z,9.90
2019-03-10T04:03:58.742Z,9.80
2019-03-10T04:06:46.368Z,9.80
2019-03-10T04:09:34.014Z,9.70
2019-03-10T04:12:21.465Z,9.70
2019-03-10T04:15:08.937Z,9.60
2019-03-10T04:17:56.298Z,9.50
2019-03-10T04:20:44.105Z,9.40
2019-03-10T04:23:31.443Z,9.40
2019-03-10T04:26:19.061Z,9.30
2019-03-10T04:31:53.843Z,9.10
2019-03-10T04:34:41.532Z,9.00
2019-03-10T04:37:28.988Z,9.00
2019-03-10T04:40:16.469Z,8.80
2019-03-10T04:43:04.093Z,8.80
2019-03-10T04:45:51.491Z,8.80
2019-03-10T04:48:39.129Z,8.80
2019-03-10T04:51:26.629Z,8.70
2019-03-10T04:54:15.791Z,8.70
2019-03-10T04:57:04.863Z,8.70
2019-03-10T04:59:52.231Z,8.70
2019-03-10T05:02:39.969Z,8.70
2019-03-10T05:05:27.495Z,8.70
2019-03-10T05:08:14.915Z,8.70
2019-03-10T05:11:02.565Z,8.70
2019-03-10T05:13:50.396Z,8.70
2019-03-10T05:16:38.098Z,8.60
2019-03-10T05:19:25.766Z,8.60
2019-03-10T05:22:13.276Z,8.60
2019-03-10T05:25:01.000Z,8.60
2019-03-10T05:27:48.556Z,8.50
2019-03-10T05:30:35.864Z,8.50
2019-03-10T05:33:23.593Z,8.50
2019-03-10T05:36:10.897Z,8.40
2019-03-10T05:38:58.327Z,8.30
2019-03-10T05:41:45.977Z,8.30
2019-03-10T05:44:33.777Z,8.30
2019-03-10T05:47:21.430Z,8.30
2019-03-10T05:50:09.049Z,8.20
2019-03-10T05:52:56.557Z,8.30
2019-03-10T05:55:44.228Z,8.30
2019-03-10T05:58:31.921Z,8.30
2019-03-10T06:01:19.471Z,8.30
2019-03-10T06:04:06.940Z,8.40
2019-03-10T06:06:54.293Z,8.40
2019-03-10T06:09:41.877Z,8.40
2019-03-10T06:12:29.529Z,8.30
2019-03-10T06:15:17.580Z,8.30
2019-03-10T06:18:13.098Z,8.30
2019-03-10T06:20:54.350Z,8.40
2019-03-10T06:23:41.781Z,8.30
2019-03-10T06:26:29.237Z,8.30
2019-03-10T06:29:16.621Z,8.30
2019-03-10T06:32:04.117Z,8.30
2019-03-10T06:34:51.757Z,8.30
2019-03-10T06:37:39.490Z,8.30
2019-03-10T06:40:32.230Z,8.30
2019-03-10T06:43:16.196Z,8.40
2019-03-10T06:46:03.600Z,8.40
2019-03-10T06:48:51.334Z,8.50
2019-03-10T06:51:38.933Z,8.50
2019-03-10T06:54:26.559Z,8.50
2019-03-10T06:57:13.995Z,8.60
2019-03-10T07:00:01.375Z,8.70
2019-03-10T07:02:49.040Z,8.80
2019-03-10T07:05:36.413Z,8.90
2019-03-10T07:08:23.998Z,9.10
2019-03-10T07:11:11.572Z,9.20
2019-03-10T07:13:59.205Z,9.40
2019-03-10T07:16:46.604Z,9.50
2019-03-10T07:19:34.233Z,9.90
2019-03-10T07:22:23.508Z,9.90
2019-03-10T07:25:11.173Z,10.20
2019-03-10T07:28:00.612Z,10.70
2019-03-10T07:30:49.750Z,11.30
2019-03-10T07:33:38.812Z,11.60
2019-03-10T07:36:28.104Z,11.80
2019-03-10T07:39:33.924Z,12.00
2019-03-10T07:42:32.274Z,12.00
2019-03-10T07:45:30.452Z,12.00
2019-03-10T07:48:26.061Z,12.00
2019-03-10T07:51:15.197Z,12.00
2019-03-10T07:54:13.339Z,12.00
2019-03-10T07:57:19.404Z,12.10
2019-03-10T08:00:17.254Z,12.20
2019-03-10T08:03:18.306Z,12.20
2019-03-10T08:06:07.666Z,12.30
2019-03-10T08:09:00.625Z,12.40
2019-03-10T08:12:01.953Z,12.50
2019-03-10T08:15:09.206Z,12.60
2019-03-10T08:17:58.609Z,12.70
2019-03-10T08:21:04.035Z,12.90
2019-03-10T08:24:08.483Z,12.90
2019-03-10T08:27:09.745Z,12.90
2019-03-10T08:30:15.608Z,13.00
2019-03-10T08:33:21.295Z,13.00
2019-03-10T08:36:22.825Z,13.10
2019-03-10T08:39:15.047Z,13.20
2019-03-10T08:42:06.712Z,13.20
2019-03-10T08:45:04.466Z,13.20
2019-03-10T08:48:02.255Z,13.40
2019-03-10T08:51:00.650Z,13.50
2019-03-10T08:54:05.697Z,13.50
2019-03-10T08:56:57.617Z,13.60
2019-03-10T08:59:47.397Z,13.60
2019-03-10T09:02:53.009Z,13.70
2019-03-10T09:05:51.513Z,13.80
2019-03-10T09:08:43.429Z,13.70
2019-03-10T09:11:32.996Z,13.70
2019-03-10T09:14:38.352Z,13.80
2019-03-10T09:17:30.664Z,13.90
2019-03-10T09:20:22.962Z,14.00
2019-03-10T09:23:17.813Z,14.10
2019-03-10T09:26:09.736Z,14.40
2019-03-10T09:29:01.845Z,14.70
2019-03-10T09:32:09.514Z,14.90
2019-03-10T09:34:58.613Z,15.10
2019-03-10T09:37:47.585Z,15.10
2019-03-10T09:40:51.835Z,14.90
2019-03-10T09:43:43.897Z,15.30
2019-03-10T09:46:36.437Z,15.50
2019-03-10T09:49:29.158Z,15.50
2019-03-10T09:52:21.930Z,15.80
2019-03-10T09:55:25.978Z,15.70
2019-03-10T09:58:15.397Z,15.40
2019-03-10T10:01:20.341Z,15.40
2019-03-10T10:04:09.397Z,15.40
2019-03-10T10:07:04.466Z,15.60
2019-03-10T10:10:02.396Z,15.70
2019-03-10T10:12:51.820Z,16.00
2019-03-10T10:15:41.215Z,16.10
2019-03-10T10:18:39.310Z,16.10
2019-03-10T10:21:28.702Z,16.00
2019-03-10T10:24:20.745Z,15.80
2019-03-10T10:27:21.950Z,15.60
2019-03-10T10:30:22.075Z,15.90
2019-03-10T10:33:11.866Z,15.90
2019-03-10T10:36:17.428Z,15.80
2019-03-10T10:39:25.112Z,15.60
2019-03-10T10:42:23.315Z,15.50
2019-03-10T10:45:16.088Z,15.50
2019-03-10T10:48:05.331Z,15.70
2019-03-10T10:50:57.784Z,15.50
2019-03-10T10:53:46.849Z,15.50
2019-03-10T10:56:48.217Z,15.50
2019-03-10T10:59:37.257Z,15.50
2019-03-10T11:02:26.336Z,15.50
2019-03-10T11:05:15.493Z,15.40
2019-03-10T11:08:10.632Z,15.30
2019-03-10T11:11:02.454Z,15.30
2019-03-10T11:14:03.465Z,15.40
2019-03-10T11:17:07.970Z,15.30
2019-03-10T11:20:09.350Z,15.00
2019-03-10T11:22:58.600Z,15.00
2019-03-10T11:25:47.907Z,15.00
2019-03-10T11:28:37.357Z,15.40
2019-03-10T11:31:29.152Z,15.60
2019-03-10T11:34:24.553Z,15.50
2019-03-10T11:37:28.431Z,15.70
2019-03-10T11:40:33.266Z,16.00
2019-03-10T11:43:28.237Z,16.20
2019-03-10T11:46:21.681Z,15.90
2019-03-10T11:49:23.183Z,15.70
2019-03-10T11:52:18.149Z,15.80
2019-03-10T11:55:25.077Z,15.90
2019-03-10T11:58:14.581Z,16.00
2019-03-10T12:01:09.525Z,15.80
2019-03-10T12:03:59.206Z,15.30
2019-03-10T12:06:51.498Z,15.30
2019-03-10T12:09:39.057Z,15.30
2019-03-10T12:12:26.709Z,15.40
2019-03-10T12:15:14.602Z,15.60
2019-03-10T12:18:02.293Z,15.50
2019-03-10T12:20:49.961Z,15.20
2019-03-10T12:23:37.446Z,15.30
2019-03-10T12:26:25.300Z,15.60
2019-03-10T12:29:13.008Z,16.00
2019-03-10T12:32:00.709Z,16.00
2019-03-10T12:34:48.261Z,16.00
2019-03-10T12:37:35.918Z,15.60
2019-03-10T12:40:23.331Z,15.50
2019-03-10T12:43:10.949Z,15.70
2019-03-10T12:45:58.612Z,15.90
2019-03-10T12:48:46.320Z,16.00
2019-03-10T12:51:33.725Z,16.10
2019-03-10T12:54:21.075Z,15.80
2019-03-10T12:57:08.553Z,15.60
2019-03-10T12:59:56.321Z,14.60
2019-03-10T13:02:43.760Z,14.60
2019-03-10T13:05:31.445Z,14.60
2019-03-10T13:08:19.212Z,14.70
2019-03-10T13:11:06.865Z,14.90
2019-03-10T13:13:54.460Z,15.00
2019-03-10T13:16:41.957Z,15.00
2019-03-10T13:19:29.669Z,15.10
2019-03-10T13:22:17.300Z,15.40
2019-03-10T13:25:07.719Z,15.60
2019-03-10T13:27:55.286Z,15.60
2019-03-10T13:30:42.941Z,15.70
2019-03-10T13:33:30.388Z,15.40
2019-03-10T13:36:17.828Z,15.50
2019-03-10T13:39:06.713Z,15.60
2019-03-10T13:41:54.514Z,15.90
2019-03-10T13:44:42.168Z,15.90
2019-03-10T13:47:29.829Z,15.70
2019-03-10T13:50:17.340Z,15.60
2019-03-10T13:53:05.225Z,15.50
2019-03-10T13:55:52.662Z,15.50
2019-03-10T13:58:40.138Z,15.20
2019-03-10T14:01:27.877Z,15.00
2019-03-10T14:04:15.608Z,15.10
2019-03-10T14:07:03.013Z,15.30
2019-03-10T14:09:50.685Z,15.40
2019-03-10T14:12:38.517Z,15.20
2019-03-10T14:15:25.856Z,15.10
2019-03-10T14:18:13.320Z,14.90
2019-03-10T14:21:01.027Z,15.00
2019-03-10T14:23:48.806Z,15.10
2019-03-10T14:26:36.189Z,15.30
2019-03-10T14:29:23.843Z,15.40
2019-03-10T14:32:11.590Z,15.30
2019-03-10T14:34:59.275Z,15.30
2019-03-10T14:37:46.668Z,15.10
2019-03-10T14:40:34.346Z,15.20
2019-03-10T14:43:22.056Z,15.30
2019-03-10T14:46:09.652Z,15.30
2019-03-10T14:48:57.356Z,15.10
2019-03-10T14:51:45.017Z,15.00
2019-03-10T14:54:32.541Z,14.90
2019-03-10T14:57:20.029Z,15.40
2019-03-10T15:00:16.881Z,14.50
2019-03-10T15:03:04.785Z,14.50
2019-03-10T15:05:52.148Z,14.60
2019-03-10T15:08:39.549Z,14.60
2019-03-10T15:11:27.332Z,14.60
2019-03-10T15:14:14.661Z,14.60
2019-03-10T15:17:02.277Z,14.60
2019-03-10T15:19:49.880Z,14.70
2019-03-10T15:22:37.548Z,14.70
2019-03-10T15:25:25.466Z,14.80
2019-03-10T15:28:13.384Z,14.80
2019-03-10T15:31:01.165Z,14.70
2019-03-10T15:33:48.547Z,14.60
2019-03-10T15:36:36.164Z,14.50
2019-03-10T15:39:23.852Z,14.50
2019-03-10T15:42:11.332Z,14.40
2019-03-10T15:44:58.884Z,14.20
2019-03-10T15:47:47.663Z,14.20
2019-03-10T15:50:37.373Z,14.10
2019-03-10T15:53:25.215Z,14.10
2019-03-10T15:56:12.553Z,14.00
2019-03-10T15:59:00.037Z,13.90
2019-03-10T16:01:47.764Z,13.80
2019-03-10T16:04:35.622Z,13.60
2019-03-10T16:07:23.250Z,13.50
2019-03-10T16:10:12.693Z,13.10
2019-03-10T16:13:00.161Z,13.10
2019-03-10T16:15:47.744Z,12.90
2019-03-10T16:18:35.226Z,12.80
2019-03-10T16:21:23.015Z,12.80
2019-03-10T16:24:10.402Z,12.80
2019-03-10T16:26:57.873Z,12.80
2019-03-10T16:29:45.500Z,12.80
2019-03-10T16:32:33.083Z,12.80
2019-03-10T16:35:22.272Z,12.80
2019-03-10T16:38:10.225Z,12.70
2019-03-10T16:40:57.895Z,12.70
2019-03-10T16:43:45.254Z,12.60
2019-03-10T16:46:32.785Z,12.50
2019-03-10T16:49:20.211Z,12.40
2019-03-10T16:52:07.824Z,12.40
2019-03-10T16:54:55.393Z,12.30
2019-03-10T16:57:42.993Z,12.20
2019-03-10T17:00:30.440Z,12.10
2019-03-10T17:03:17.879Z,12.00
2019-03-10T17:06:05.651Z,12.00
2019-03-10T17:08:53.074Z,11.80
2019-03-10T17:11:40.506Z,11.70
2019-03-10T17:14:27.972Z,11.70
2019-03-10T17:17:15.837Z,11.60
2019-03-10T17:20:04.621Z,11.50
2019-03-10T17:22:52.330Z,11.40
2019-03-10T17:25:39.617Z,11.40
2019-03-10T17:28:27.421Z,11.30
2019-03-10T17:31:15.029Z,11.20
2019-03-10T17:34:02.442Z,11.10
2019-03-10T17:36:49.823Z,11.10
2019-03-10T17:39:37.644Z,11.10
2019-03-10T17:42:25.384Z,11.20
2019-03-10T17:45:15.515Z,11.20
2019-03-10T17:48:03.088Z,11.10
2019-03-10T17:50:50.634Z,11.00
2019-03-10T17:53:37.975Z,10.90
2019-03-10T17:56:25.400Z,10.80
2019-03-10T17:59:13.400Z,10.90
2019-03-10T18:02:08.527Z,10.90
2019-03-10T18:04:50.110Z,10.90
2019-03-10T18:07:37.690Z,11.00
2019-03-10T18:10:25.349Z,11.00
2019-03-10T18:13:13.113Z,11.00
2019-03-10T18:16:00.787Z,10.90
2019-03-10T18:18:48.407Z,10.80
2019-03-10T18:21:36.045Z,10.80
2019-03-10T18:24:23.388Z,10.80
2019-03-10T18:27:10.773Z,10.90
2019-03-10T18:29:58.390Z,9.40
2019-03-10T18:32:45.996Z,9.40
2019-03-10T18:35:33.612Z,8.50
2019-03-10T18:38:21.249Z,8.10
2019-03-10T18:41:16.581Z,7.90
2019-03-10T18:44:03.973Z,7.80
2019-03-10T18:46:51.577Z,7.70
2019-03-10T18:49:39.163Z,7.50
2019-03-10T18:52:26.870Z,7.50
2019-03-10T18:55:15.923Z,7.60
2019-03-10T18:58:03.697Z,7.70
2019-03-10T19:00:51.297Z,7.90
2019-03-10T19:03:38.601Z,8.00
2019-03-10T19:06:25.978Z,8.10
2019-03-10T19:09:13.449Z,8.20
2019-03-10T19:12:01.061Z,8.10
2019-03-10T19:14:48.528Z,8.10
2019-03-10T19:17:36.160Z,8.00
2019-03-10T19:20:23.943Z,7.90
2019-03-10T19:23:11.644Z,7.80
2019-03-10T19:25:59.285Z,7.70
2019-03-10T19:28:46.884Z,7.70
2019-03-10T19:31:34.470Z,7.70
2019-03-10T19:34:22.116Z,7.60
2019-03-10T19:37:09.678Z,7.70
2019-03-10T19:39:57.454Z,7.70
2019-03-10T19:42:45.117Z,7.70
2019-03-10T19:45:32.705Z,7.70
2019-03-10T19:48:20.196Z,7.80
2019-03-10T19:51:07.809Z,7.80
2019-03-10T19:53:55.467Z,7.80
2019-03-10T19:56:42.913Z,7.70
2019-03-10T19:59:30.322Z,7.80
2019-03-10T20:02:17.969Z,7.90
2019-03-10T20:05:07.516Z,8.00
2019-03-10T20:07:54.960Z,8.10
2019-03-10T20:10:42.610Z,8.20
2019-03-10T20:13:30.332Z,8.20
2019-03-10T20:16:17.741Z,8.10
2019-03-10T20:19:05.389Z,8.10
2019-03-10T20:21:53.220Z,8.00
2019-03-10T20:24:40.656Z,8.00
2019-03-10T20:27:28.261Z,8.00
2019-03-10T20:30:23.621Z,7.90
2019-03-10T20:33:11.004Z,7.90
2019-03-10T20:35:58.703Z,7.80
2019-03-10T20:38:46.209Z,7.80
2019-03-10T20:41:33.877Z,7.80
2019-03-10T20:44:21.352Z,7.80
2019-03-10T20:47:09.054Z,7.80
2019-03-10T20:49:56.400Z,7.70
2019-03-10T20:52:44.100Z,7.80
2019-03-10T20:55:31.633Z,7.80
2019-03-10T20:58:19.420Z,7.80
2019-03-10T21:01:06.867Z,7.90
2019-03-10T21:03:54.487Z,7.90
2019-03-10T21:06:41.873Z,7.90
2019-03-10T21:09:29.326Z,8.00
2019-03-10T21:12:17.040Z,8.00
2019-03-10T21:15:07.849Z,8.00
2019-03-10T21:17:55.945Z,8.00
2019-03-10T21:20:43.455Z,8.00
2019-03-10T21:23:30.853Z,8.00
2019-03-10T21:26:18.441Z,7.90
2019-03-10T21:29:06.100Z,7.60
2019-03-10T21:31:53.725Z,7.50
2019-03-10T21:34:41.348Z,7.40
2019-03-10T21:37:28.909Z,7.40
2019-03-10T21:40:33.387Z,7.30
2019-03-10T21:43:20.888Z,7.30
2019-03-10T21:46:08.383Z,7.30
2019-03-10T21:48:55.973Z,7.20
2019-03-10T21:51:43.660Z,7.20
2019-03-10T21:54:31.085Z,7.20
2019-03-10T21:57:18.709Z,7.20
2019-03-10T22:00:09.319Z,7.10
2019-03-10T22:02:56.733Z,7.10
2019-03-10T22:05:44.532Z,7.00
2019-03-10T22:08:31.958Z,7.00
2019-03-10T22:11:19.498Z,6.90
2019-03-10T22:14:06.984Z,7.00
2019-03-10T22:16:54.325Z,7.00
2019-03-10T22:19:41.980Z,7.00
2019-03-10T22:22:29.459Z,7.20
2019-03-10T22:25:17.044Z,7.20
2019-03-10T22:28:04.522Z,7.10
2019-03-10T22:30:52.181Z,7.10
2019-03-10T22:33:39.916Z,7.10
2019-03-10T22:36:27.463Z,7.10
2019-03-10T22:39:15.072Z,7.10
2019-03-10T22:42:02.473Z,7.10
2019-03-10T22:44:50.272Z,7.10
2019-03-10T22:47:37.657Z,7.00
2019-03-10T22:50:25.241Z,6.80
2019-03-10T22:53:12.908Z,6.80
2019-03-10T22:56:00.428Z,6.70
2019-03-10T22:58:48.034Z,6.70
2019-03-10T23:01:35.684Z,6.70
2019-03-10T23:04:23.065Z,6.70
2019-03-10T23:07:10.388Z,6.90
2019-03-10T23:09:57.792Z,6.90
2019-03-10T23:12:45.519Z,6.90
2019-03-10T23:15:33.035Z,6.80
2019-03-10T23:18:20.474Z,6.60
2019-03-10T23:21:08.175Z,6.40
2019-03-10T23:23:55.595Z,6.40
2019-03-10T23:26:42.965Z,6.20
2019-03-10T23:29:30.703Z,6.30
2019-03-10T23:32:18.188Z,6.30
2019-03-10T23:35:06.659Z,6.30
2019-03-10T23:37:54.192Z,6.30
2019-03-10T23:40:41.620Z,6.20
2019-03-10T23:43:29.093Z,6.10
2019-03-10T23:46:16.896Z,6.10
2019-03-10T23:49:04.468Z,6.10
2019-03-10T23:51:51.923Z,6.10
2019-03-10T23:54:39.436Z,6.10
2019-03-10T23:57:26.908Z,6.10
